createdAt,value
2019-05-11T00:00:15.187Z,19.05
2019-05-11T00:02:19.445Z,15.83
2019-05-11T00:04:23.421Z,17.70
2019-05-11T00:06:27.398Z,21.48
2019-05-11T00:08:31.420Z,15.75
2019-05-11T00:10:35.253Z,16.52
2019-05-11T00:12:39.150Z,19.15
2019-05-11T00:14:43.237Z,16.77
2019-05-11T00:16:47.262Z,21.12
2019-05-11T00:18:52.789Z,16.60
2019-05-11T00:20:58.331Z,16.00
2019-05-11T00:23:02.205Z,21.57
2019-05-11T00:25:07.809Z,18.15
2019-05-11T00:27:11.704Z,18.27
2019-05-11T00:29:15.592Z,18.48
2019-05-11T00:31:19.502Z,18.85
2019-05-11T00:33:23.608Z,20.00
2019-05-11T00:35:27.497Z,16.87
2019-05-11T00:37:31.422Z,23.83
2019-05-11T00:39:35.379Z,18.40
2019-05-11T00:41:39.569Z,15.72
2019-05-11T00:43:43.544Z,14.58
2019-05-11T00:45:47.458Z,18.57
2019-05-11T00:47:51.457Z,15.13
2019-05-11T00:49:55.478Z,17.75
2019-05-11T00:51:59.312Z,15.90
2019-05-11T00:54:04.912Z,18.52
2019-05-11T00:56:09.124Z,16.05
2019-05-11T00:58:13.134Z,16.15
2019-05-11T01:02:43.304Z,17.92
2019-05-11T01:04:47.198Z,16.00
2019-05-11T01:06:51.044Z,17.40
2019-05-11T01:08:54.972Z,15.98
2019-05-11T01:10:59.076Z,18.40
2019-05-11T01:13:03.372Z,15.00
2019-05-11T01:15:08.962Z,20.88
2019-05-11T01:17:12.998Z,17.40
2019-05-11T01:19:16.998Z,16.07
2019-05-11T01:21:20.855Z,15.43
2019-05-11T01:23:24.724Z,14.53
2019-05-11T01:25:28.672Z,17.02
2019-05-11T01:27:32.536Z,17.17
2019-05-11T01:29:36.443Z,15.90
2019-05-11T01:31:40.320Z,15.65
2019-05-11T01:33:44.223Z,16.00
2019-05-11T01:35:50.991Z,16.85
2019-05-11T01:37:53.607Z,14.63
2019-05-11T01:39:57.557Z,17.82
2019-05-11T01:42:01.396Z,16.75
2019-05-11T01:44:05.344Z,18.15
2019-05-11T01:46:09.235Z,30.37
2019-05-11T01:48:13.085Z,18.42
2019-05-11T01:50:17.152Z,21.30
2019-05-11T01:52:21.081Z,19.15
2019-05-11T01:54:24.947Z,17.52
2019-05-11T01:56:30.397Z,17.55
2019-05-11T01:58:34.358Z,15.13
2019-05-11T02:00:38.226Z,14.25
2019-05-11T02:02:42.039Z,16.75
2019-05-11T02:04:46.024Z,14.58
2019-05-11T02:06:49.816Z,16.37
2019-05-11T02:08:53.750Z,13.13
2019-05-11T02:11:13.736Z,16.57
2019-05-11T02:13:03.158Z,15.65
2019-05-11T02:15:07.166Z,16.00
2019-05-11T02:17:11.007Z,15.63
2019-05-11T02:19:14.920Z,17.02
2019-05-11T02:21:18.843Z,20.15
2019-05-11T02:23:22.704Z,17.00
2019-05-11T02:25:26.580Z,18.92
2019-05-11T02:27:30.469Z,20.32
2019-05-11T02:29:34.344Z,19.40
2019-05-11T02:31:38.305Z,17.75
2019-05-11T02:33:42.155Z,18.67
2019-05-11T02:35:46.100Z,16.48
2019-05-11T02:37:49.961Z,20.10
2019-05-11T02:39:53.832Z,19.95
2019-05-11T02:41:57.723Z,15.05
2019-05-11T02:44:01.579Z,16.80
2019-05-11T02:46:05.484Z,15.28
2019-05-11T02:48:09.374Z,18.45
2019-05-11T02:50:13.667Z,19.10
2019-05-11T02:52:18.028Z,15.60
2019-05-11T02:54:22.008Z,16.35
2019-05-11T02:56:25.889Z,19.35
2019-05-11T02:58:29.757Z,17.57
2019-05-11T03:00:41.786Z,18.87
2019-05-11T03:02:45.684Z,18.67
2019-05-11T03:04:49.636Z,18.80
2019-05-11T03:06:53.556Z,16.93
2019-05-11T03:08:57.536Z,20.65
2019-05-11T03:11:01.413Z,17.80
2019-05-11T03:13:05.269Z,19.17
2019-05-11T03:15:09.261Z,16.90
2019-05-11T03:17:17.383Z,21.73
2019-05-11T03:19:21.312Z,19.73
2019-05-11T03:21:25.198Z,16.42
2019-05-11T03:23:29.139Z,20.23
2019-05-11T03:25:32.976Z,19.25
2019-05-11T03:27:36.989Z,19.25
2019-05-11T03:29:40.885Z,18.23
2019-05-11T03:31:44.758Z,20.30
2019-05-11T03:33:48.680Z,17.75
2019-05-11T03:35:52.598Z,19.65
2019-05-11T03:37:56.434Z,20.12
2019-05-11T03:40:01.921Z,17.85
2019-05-11T03:42:14.848Z,17.60
2019-05-11T03:44:11.358Z,17.35
2019-05-11T03:46:15.203Z,17.92
2019-05-11T03:48:19.095Z,20.85
2019-05-11T03:50:22.963Z,19.15
2019-05-11T03:52:26.822Z,18.48
2019-05-11T03:54:30.733Z,21.12
2019-05-11T03:56:34.658Z,19.85
2019-05-11T03:58:38.592Z,20.00
2019-05-11T04:00:42.470Z,18.02
2019-05-11T04:02:46.360Z,17.32
2019-05-11T04:04:51.717Z,16.32
2019-05-11T04:06:55.594Z,20.12
2019-05-11T04:08:59.439Z,20.88
2019-05-11T04:11:03.420Z,21.30
2019-05-11T04:13:07.333Z,24.37
2019-05-11T04:15:11.791Z,23.05
2019-05-11T04:17:15.636Z,20.85
2019-05-11T04:19:19.471Z,20.45
2019-05-11T04:21:23.726Z,20.65
2019-05-11T04:23:27.580Z,21.77
2019-05-11T04:25:31.420Z,20.17
2019-05-11T04:27:35.489Z,21.37
2019-05-11T04:29:39.387Z,18.62
2019-05-11T04:31:43.368Z,18.10
2019-05-11T04:33:47.309Z,22.13
2019-05-11T04:35:51.161Z,19.75
2019-05-11T04:37:55.067Z,18.45
2019-05-11T04:39:58.967Z,20.70
2019-05-11T04:42:02.864Z,20.90
2019-05-11T04:44:06.768Z,21.20
2019-05-11T04:46:10.658Z,22.07
2019-05-11T04:48:14.461Z,26.42
2019-05-11T04:50:18.403Z,21.27
2019-05-11T04:52:22.532Z,23.30
2019-05-11T04:54:26.496Z,22.17
2019-05-11T04:56:30.474Z,21.90
2019-05-11T04:58:34.296Z,20.30
2019-05-11T05:00:38.419Z,19.37
2019-05-11T05:02:42.319Z,21.45
2019-05-11T05:04:46.228Z,21.30
2019-05-11T05:06:59.349Z,23.87
2019-05-11T05:08:58.072Z,22.20
2019-05-11T05:11:04.394Z,18.67
2019-05-11T05:13:10.477Z,17.15
2019-05-11T05:15:13.855Z,20.82
2019-05-11T05:17:17.805Z,18.57
2019-05-11T05:19:21.858Z,17.60
2019-05-11T05:21:25.971Z,19.77
2019-05-11T05:23:29.883Z,16.52
2019-05-11T05:25:33.881Z,17.90
2019-05-11T05:27:37.985Z,20.92
2019-05-11T05:29:41.896Z,19.20
2019-05-11T05:31:48.535Z,16.77
2019-05-11T05:33:52.579Z,20.48
2019-05-11T05:35:56.504Z,18.40
2019-05-11T05:38:00.364Z,15.70
2019-05-11T05:40:04.700Z,17.32
2019-05-11T05:42:08.608Z,21.85
2019-05-11T05:44:12.623Z,19.17
2019-05-11T05:46:16.622Z,20.37
2019-05-11T05:48:20.512Z,18.20
2019-05-11T05:50:26.289Z,17.37
2019-05-11T05:52:30.111Z,17.55
2019-05-11T05:54:34.187Z,17.90
2019-05-11T05:56:38.094Z,21.62
2019-05-11T05:58:42.513Z,18.85
2019-05-11T06:00:46.403Z,20.68
2019-05-11T06:02:50.289Z,20.97
2019-05-11T06:04:54.259Z,20.82
2019-05-11T06:06:58.106Z,22.32
2019-05-11T06:09:02.023Z,23.35
2019-05-11T06:11:05.960Z,20.72
2019-05-11T06:13:11.459Z,22.37
2019-05-11T06:15:15.559Z,23.50
2019-05-11T06:17:20.982Z,23.83
2019-05-11T06:19:25.083Z,23.57
2019-05-11T06:21:29.258Z,22.75
2019-05-11T06:23:33.112Z,24.45
2019-05-11T06:25:36.964Z,19.98
2019-05-11T06:27:40.899Z,20.00
2019-05-11T06:29:44.746Z,22.85
2019-05-11T06:31:48.603Z,21.48
2019-05-11T06:33:52.504Z,19.40
2019-05-11T06:35:56.408Z,22.60
2019-05-11T06:38:00.297Z,20.68
2019-05-11T06:40:08.197Z,19.27
2019-05-11T06:42:12.128Z,20.35
2019-05-11T06:44:15.976Z,22.37
2019-05-11T06:46:19.830Z,20.27
2019-05-11T06:48:23.776Z,17.95
2019-05-11T06:50:27.634Z,19.62
2019-05-11T06:52:31.496Z,20.02
2019-05-11T06:54:35.445Z,18.90
2019-05-11T06:56:39.391Z,20.88
2019-05-11T06:58:45.463Z,17.57
2019-05-11T07:00:48.751Z,18.35
2019-05-11T07:02:52.640Z,19.55
2019-05-11T07:04:56.492Z,18.73
2019-05-11T07:07:00.385Z,19.07
2019-05-11T07:09:06.106Z,20.48
2019-05-11T07:11:10.039Z,18.55
2019-05-11T07:13:13.922Z,17.10
2019-05-11T07:15:17.867Z,19.55
2019-05-11T07:17:21.798Z,19.12
2019-05-11T07:19:25.708Z,18.85
2019-05-11T07:21:31.047Z,18.87
2019-05-11T07:23:34.957Z,19.07
2019-05-11T07:25:38.837Z,21.27
2019-05-11T07:27:42.772Z,20.08
2019-05-11T07:29:47.123Z,18.05
2019-05-11T07:31:51.032Z,17.87
2019-05-11T07:33:55.000Z,16.85
2019-05-11T07:35:58.832Z,21.12
2019-05-11T07:38:02.679Z,16.40
2019-05-11T07:40:08.402Z,16.50
2019-05-11T07:42:12.583Z,17.42
2019-05-11T07:44:18.520Z,19.50
2019-05-11T07:46:22.010Z,17.23
2019-05-11T07:48:27.885Z,18.48
2019-05-11T07:50:31.437Z,16.90
2019-05-11T07:52:37.660Z,14.28
2019-05-11T07:54:40.819Z,12.75
2019-05-11T07:56:44.691Z,11.53
2019-05-11T07:58:48.595Z,13.58
2019-05-11T08:00:52.469Z,10.70
2019-05-11T08:02:58.408Z,11.88
2019-05-11T08:05:01.936Z,13.35
2019-05-11T08:07:07.712Z,13.15
2019-05-11T08:09:11.325Z,11.73
2019-05-11T08:11:15.304Z,11.83
2019-05-11T08:13:19.193Z,11.85
2019-05-11T08:15:23.035Z,10.78
2019-05-11T08:17:28.625Z,10.53
2019-05-11T08:19:32.621Z,9.10
2019-05-11T08:21:38.664Z,9.98
2019-05-11T08:23:42.104Z,8.25
2019-05-11T08:25:48.445Z,8.35
2019-05-11T08:27:51.567Z,10.78
2019-05-11T08:29:57.854Z,8.20
2019-05-11T08:32:01.148Z,8.43
2019-05-11T08:34:05.038Z,7.87
2019-05-11T08:36:08.911Z,8.95
2019-05-11T08:38:13.152Z,7.67
2019-05-11T08:40:18.393Z,9.45
2019-05-11T08:42:22.414Z,6.58
2019-05-11T08:44:28.549Z,7.15
2019-05-11T08:46:31.811Z,7.17
2019-05-11T08:48:35.686Z,6.60
2019-05-11T08:50:39.582Z,8.58
2019-05-11T08:52:43.420Z,10.05
2019-05-11T08:54:48.669Z,12.30
2019-05-11T08:56:52.852Z,11.65
2019-05-11T08:58:58.776Z,14.95
2019-05-11T09:01:02.286Z,12.65
2019-05-11T09:03:08.358Z,17.52
2019-05-11T09:05:11.984Z,11.50
2019-05-11T09:07:18.259Z,12.05
2019-05-11T09:09:21.832Z,9.25
2019-05-11T09:11:28.194Z,10.85
2019-05-11T09:13:31.243Z,12.78
2019-05-11T09:15:38.310Z,10.10
2019-05-11T09:17:40.880Z,10.90
2019-05-11T09:19:44.743Z,8.80
2019-05-11T09:21:52.924Z,8.10
2019-05-11T09:23:57.861Z,8.58
2019-05-11T09:26:01.979Z,9.55
2019-05-11T09:28:08.751Z,8.45
2019-05-11T09:30:12.808Z,10.23
2019-05-11T09:32:17.875Z,7.37
2019-05-11T09:34:22.003Z,7.60
2019-05-11T09:36:28.313Z,6.78
2019-05-11T09:38:31.513Z,9.33
2019-05-11T09:40:35.398Z,8.10
2019-05-11T09:42:39.305Z,9.08
2019-05-11T09:44:43.400Z,9.53
2019-05-11T09:46:47.810Z,6.70
2019-05-11T09:48:51.916Z,7.92
2019-05-11T09:50:55.832Z,7.10
2019-05-11T09:52:59.721Z,7.35
2019-05-11T09:55:03.695Z,21.95
2019-05-11T09:57:08.357Z,10.10
2019-05-11T09:59:12.402Z,9.60
2019-05-11T10:01:18.276Z,8.58
2019-05-11T10:03:41.765Z,8.90
2019-05-11T10:05:45.618Z,8.43
2019-05-11T10:07:49.578Z,7.22
2019-05-11T10:09:54.914Z,7.62
2019-05-11T10:11:58.756Z,7.95
2019-05-11T10:14:02.636Z,9.40
2019-05-11T10:16:09.779Z,9.40
2019-05-11T10:18:12.182Z,11.68
2019-05-11T10:20:18.197Z,7.75
2019-05-11T10:22:21.608Z,7.65
2019-05-11T10:24:28.126Z,8.80
2019-05-11T10:26:31.193Z,7.58
2019-05-11T10:28:35.454Z,6.47
2019-05-11T10:30:39.317Z,8.13
2019-05-11T10:32:43.663Z,7.12
2019-05-11T10:34:51.986Z,7.78
2019-05-11T10:37:02.340Z,7.35
2019-05-11T10:39:12.056Z,8.50
2019-05-11T10:41:20.854Z,7.62
2019-05-11T10:43:29.668Z,7.92
2019-05-11T10:45:39.132Z,6.42
2019-05-11T10:47:48.929Z,5.78
2019-05-11T10:49:57.875Z,6.50
2019-05-11T10:52:02.362Z,4.92
2019-05-11T10:54:08.405Z,7.20
2019-05-11T10:56:11.676Z,5.92
2019-05-11T10:58:18.172Z,5.65
2019-05-11T11:00:22.871Z,6.17
2019-05-11T11:02:27.742Z,5.90
2019-05-11T11:04:31.995Z,5.83
2019-05-11T11:06:35.851Z,4.42
2019-05-11T11:08:39.756Z,4.70
2019-05-11T11:10:43.656Z,10.10
2019-05-11T11:12:49.045Z,4.17
2019-05-11T11:14:58.611Z,4.05
2019-05-11T11:17:08.702Z,3.52
2019-05-11T11:19:18.346Z,3.67
2019-05-11T11:21:27.865Z,5.50
2019-05-11T11:23:38.383Z,4.58
2019-05-11T11:25:45.149Z,5.72
2019-05-11T11:27:53.540Z,6.45
2019-05-11T11:30:01.275Z,3.25
2019-05-11T11:32:09.960Z,6.53
2019-05-11T11:34:19.309Z,7.25
2019-05-11T11:36:28.346Z,4.17
2019-05-11T11:38:37.611Z,6.08
2019-05-11T11:40:48.199Z,8.00
2019-05-11T11:42:57.901Z,8.15
2019-05-11T11:45:03.922Z,4.72
2019-05-11T11:47:12.002Z,3.15
2019-05-11T11:49:20.419Z,3.87
2019-05-11T11:51:26.013Z,6.10
2019-05-11T11:53:30.289Z,7.10
2019-05-11T11:55:39.049Z,3.60
2019-05-11T11:57:48.633Z,3.42
2019-05-11T11:59:53.794Z,4.22
2019-05-11T12:01:58.257Z,2.87
2019-05-11T12:04:02.298Z,3.35
2019-05-11T12:06:08.521Z,5.08
2019-05-11T12:08:11.747Z,2.50
2019-05-11T12:10:15.635Z,3.00
2019-05-11T12:12:19.556Z,2.02
2019-05-11T12:14:23.408Z,2.77
2019-05-11T12:16:28.198Z,1.90
2019-05-11T12:18:32.171Z,4.30
2019-05-11T12:20:35.984Z,4.97
2019-05-11T12:22:39.955Z,2.20
2019-05-11T12:24:43.820Z,2.20
2019-05-11T12:26:48.163Z,2.70
2019-05-11T12:28:53.156Z,2.72
2019-05-11T12:30:58.577Z,2.47
2019-05-11T12:33:03.004Z,2.52
2019-05-11T12:35:09.505Z,3.67
2019-05-11T12:37:14.759Z,2.90
2019-05-11T12:39:20.134Z,4.45
2019-05-11T12:41:24.064Z,3.62
2019-05-11T12:43:27.927Z,3.05
2019-05-11T12:45:31.795Z,5.33
2019-05-11T12:47:35.744Z,5.20
2019-05-11T12:49:39.589Z,4.83
2019-05-11T12:51:43.658Z,3.10
2019-05-11T12:53:47.697Z,4.22
2019-05-11T12:55:51.878Z,4.10
2019-05-11T12:57:57.902Z,3.00
2019-05-11T13:00:01.329Z,3.30
2019-05-11T13:02:05.176Z,3.65
2019-05-11T13:04:09.173Z,5.35
2019-05-11T13:06:14.887Z,3.98
2019-05-11T13:08:18.939Z,4.05
2019-05-11T13:10:22.890Z,4.65
2019-05-11T13:12:27.938Z,2.87
2019-05-11T13:14:32.043Z,4.97
2019-05-11T13:16:37.806Z,3.67
2019-05-11T13:18:44.052Z,3.95
2019-05-11T13:20:48.287Z,4.62
2019-05-11T13:22:52.476Z,6.25
2019-05-11T13:24:58.822Z,2.75
2019-05-11T13:27:03.054Z,3.12
2019-05-11T13:29:07.772Z,3.60
2019-05-11T13:31:12.195Z,4.80
2019-05-11T13:33:18.487Z,4.37
2019-05-11T13:35:21.737Z,4.62
2019-05-11T13:37:28.144Z,4.45
2019-05-11T13:39:31.321Z,4.72
2019-05-11T13:41:35.155Z,3.58
2019-05-11T13:43:39.033Z,4.97
2019-05-11T13:45:44.547Z,4.12
2019-05-11T13:47:55.290Z,3.22
2019-05-11T13:49:55.565Z,3.15
2019-05-11T13:51:59.428Z,3.67
2019-05-11T13:54:03.343Z,4.67
2019-05-11T13:56:08.047Z,4.37
2019-05-11T13:58:12.075Z,10.20
2019-05-11T14:00:17.664Z,6.42
2019-05-11T14:02:21.650Z,13.25
2019-05-11T14:04:25.491Z,13.13
2019-05-11T14:06:29.337Z,7.53
2019-05-11T14:08:33.239Z,3.75
2019-05-11T14:10:38.406Z,4.87
2019-05-11T14:12:42.540Z,7.35
2019-05-11T14:14:48.130Z,6.28
2019-05-11T14:16:52.168Z,6.67
2019-05-11T14:18:57.869Z,4.62
2019-05-11T14:21:01.586Z,16.70
2019-05-11T14:23:07.562Z,7.12
2019-05-11T14:25:12.492Z,8.93
2019-05-11T14:27:17.790Z,4.25
2019-05-11T14:29:21.987Z,4.42
2019-05-11T14:31:27.462Z,5.47
2019-05-11T14:33:31.476Z,5.87
2019-05-11T14:35:35.340Z,16.55
2019-05-11T14:37:39.388Z,21.40
2019-05-11T14:39:43.303Z,20.88
2019-05-11T14:41:48.790Z,16.20
2019-05-11T14:43:52.883Z,11.80
2019-05-11T14:45:57.774Z,11.88
2019-05-11T14:48:01.796Z,13.98
2019-05-11T14:50:08.649Z,12.40
2019-05-11T14:52:14.416Z,12.50
2019-05-11T14:54:18.764Z,11.20
2019-05-11T14:56:22.935Z,9.23
2019-05-11T14:58:27.990Z,8.60
2019-05-11T15:00:32.187Z,8.33
2019-05-11T15:02:49.946Z,8.83
2019-05-11T15:04:53.648Z,9.73
2019-05-11T15:06:57.907Z,11.83
2019-05-11T15:09:01.935Z,11.57
2019-05-11T15:11:08.115Z,11.05
2019-05-11T15:13:11.373Z,10.43
2019-05-11T15:15:15.636Z,10.20
2019-05-11T15:17:19.609Z,9.90
2019-05-11T15:19:23.472Z,11.48
2019-05-11T15:21:28.097Z,9.23
2019-05-11T15:23:32.034Z,8.45
2019-05-11T15:25:38.166Z,8.55
2019-05-11T15:27:41.618Z,8.70
2019-05-11T15:29:45.452Z,10.10
2019-05-11T15:31:49.383Z,11.28
2019-05-11T15:33:53.258Z,9.40
2019-05-11T15:35:58.293Z,10.58
2019-05-11T15:38:02.416Z,8.48
2019-05-11T15:40:18.659Z,11.75
2019-05-11T15:42:22.783Z,9.35
2019-05-11T15:44:28.581Z,8.15
2019-05-11T15:46:33.755Z,8.50
2019-05-11T15:48:53.274Z,7.83
2019-05-11T15:50:43.154Z,8.38
2019-05-11T15:52:48.780Z,10.18
2019-05-11T15:54:52.590Z,12.40
2019-05-11T15:56:59.609Z,10.13
2019-05-11T15:59:02.044Z,11.03
2019-05-11T16:01:07.780Z,10.58
2019-05-11T16:03:11.491Z,11.40
2019-05-11T16:05:18.145Z,9.75
2019-05-11T16:07:21.376Z,17.12
2019-05-11T16:09:25.255Z,15.00
2019-05-11T16:11:29.156Z,11.25
2019-05-11T16:13:33.093Z,13.65
2019-05-11T16:15:38.360Z,8.68
2019-05-11T16:17:42.421Z,9.58
2019-05-11T16:19:48.922Z,9.63
2019-05-11T16:21:51.935Z,13.22
2019-05-11T16:23:55.783Z,9.55
2019-05-11T16:25:59.725Z,12.23
2019-05-11T16:28:03.563Z,8.55
2019-05-11T16:30:11.442Z,10.48
2019-05-11T16:32:15.343Z,16.32
2019-05-11T16:34:19.221Z,11.33
2019-05-11T16:36:23.150Z,9.38
2019-05-11T16:38:29.029Z,11.30
2019-05-11T16:40:33.040Z,12.13
2019-05-11T16:42:38.722Z,10.23
2019-05-11T16:44:42.759Z,9.63
2019-05-11T16:46:48.055Z,11.00
2019-05-11T16:48:52.173Z,10.58
2019-05-11T16:50:57.969Z,10.85
2019-05-11T16:53:01.560Z,14.07
2019-05-11T16:55:09.115Z,12.13
2019-05-11T16:57:12.996Z,14.03
2019-05-11T16:59:18.203Z,11.10
2019-05-11T17:01:22.202Z,10.20
2019-05-11T17:03:27.931Z,10.15
2019-05-11T17:05:33.883Z,11.85
2019-05-11T17:07:37.653Z,12.25
2019-05-11T17:09:41.719Z,13.08
2019-05-11T17:11:45.593Z,10.63
2019-05-11T17:13:49.522Z,12.90
2019-05-11T17:15:58.061Z,11.43
2019-05-11T17:18:02.464Z,14.98
2019-05-11T17:20:08.803Z,11.25
2019-05-11T17:22:12.699Z,10.58
2019-05-11T17:24:16.590Z,13.38
2019-05-11T17:26:20.611Z,11.93
2019-05-11T17:28:27.470Z,11.22
2019-05-11T17:30:31.412Z,12.65
2019-05-11T17:32:38.336Z,15.00
2019-05-11T17:34:43.289Z,14.90
2019-05-11T17:36:47.139Z,13.03
2019-05-11T17:39:04.971Z,15.72
2019-05-11T17:41:08.832Z,14.10
2019-05-11T17:43:12.699Z,16.87
2019-05-11T17:45:19.149Z,16.15
2019-05-11T17:47:23.770Z,16.07
2019-05-11T17:49:27.861Z,14.73
2019-05-11T17:51:31.833Z,19.10
2019-05-11T17:53:37.659Z,15.55
2019-05-11T17:55:41.231Z,12.80
2019-05-11T17:57:45.124Z,15.28
2019-05-11T17:59:48.970Z,18.17
2019-05-11T18:01:54.339Z,17.52
2019-05-11T18:03:58.401Z,16.60
2019-05-11T18:06:04.518Z,20.45
2019-05-11T18:08:08.827Z,18.35
2019-05-11T18:10:13.365Z,19.48
2019-05-11T18:12:19.005Z,20.57
2019-05-11T18:14:22.873Z,20.25
2019-05-11T18:16:26.834Z,18.67
2019-05-11T18:18:30.724Z,19.90
2019-05-11T18:20:34.618Z,19.82
2019-05-11T18:22:38.964Z,18.57
2019-05-11T18:24:43.180Z,19.10
2019-05-11T18:26:48.787Z,20.55
2019-05-11T18:28:52.814Z,20.92
2019-05-11T18:30:58.256Z,19.62
2019-05-11T18:33:02.263Z,22.85
2019-05-11T18:35:08.412Z,23.45
2019-05-11T18:37:12.573Z,25.02
2019-05-11T18:39:18.443Z,20.60
2019-05-11T18:41:22.041Z,23.15
2019-05-11T18:43:27.884Z,25.90
2019-05-11T18:45:31.511Z,28.50
2019-05-11T18:47:37.937Z,24.95
2019-05-11T18:49:41.295Z,27.98
2019-05-11T18:51:45.175Z,25.85
2019-05-11T18:53:49.099Z,26.23
2019-05-11T18:55:54.590Z,29.10
2019-05-11T18:57:59.240Z,25.37
2019-05-11T19:00:03.842Z,25.45
2019-05-11T19:02:08.397Z,22.48
2019-05-11T19:04:12.528Z,27.00
2019-05-11T19:06:18.425Z,26.73
2019-05-11T19:08:23.833Z,23.70
2019-05-11T19:10:27.866Z,26.80
2019-05-11T19:12:32.070Z,25.72
2019-05-11T19:14:39.116Z,27.37
2019-05-11T19:16:43.110Z,27.77
2019-05-11T19:18:47.956Z,25.70
2019-05-11T19:20:52.061Z,27.87
2019-05-11T19:22:58.816Z,28.07
2019-05-11T19:25:02.168Z,28.05
2019-05-11T19:27:07.955Z,30.60
2019-05-11T19:29:11.678Z,26.48
2019-05-11T19:31:15.716Z,33.95
2019-05-11T19:33:19.616Z,30.62
2019-05-11T19:35:23.652Z,30.12
2019-05-11T19:37:28.078Z,34.05
2019-05-11T19:39:32.168Z,29.45
2019-05-11T19:41:37.695Z,28.80
2019-05-11T19:43:41.550Z,30.00
2019-05-11T19:45:45.442Z,28.80
2019-05-11T19:47:52.247Z,28.57
2019-05-11T19:49:58.126Z,31.07
2019-05-11T19:52:01.707Z,30.00
2019-05-11T19:54:05.589Z,30.23
2019-05-11T19:56:09.461Z,31.68
2019-05-11T19:58:13.392Z,31.30
2019-05-11T20:00:18.373Z,30.88
2019-05-11T20:02:22.655Z,28.62
2019-05-11T20:04:29.400Z,32.45
2019-05-11T20:06:33.239Z,32.63
2019-05-11T20:08:37.173Z,31.57
2019-05-11T20:10:41.067Z,32.80
2019-05-11T20:12:44.911Z,34.58
2019-05-11T20:14:48.891Z,30.12
2019-05-11T20:16:52.916Z,31.50
2019-05-11T20:18:57.793Z,33.60
2019-05-11T20:21:15.473Z,33.33
2019-05-11T20:23:07.962Z,33.45
2019-05-11T20:25:15.127Z,34.48
2019-05-11T20:27:19.075Z,31.80
2019-05-11T20:29:23.030Z,35.25
2019-05-11T20:31:27.712Z,33.42
2019-05-11T20:33:31.747Z,35.73
2019-05-11T20:35:37.960Z,33.98
2019-05-11T20:37:41.279Z,33.48
2019-05-11T20:39:45.246Z,33.80
2019-05-11T20:41:49.274Z,33.83
2019-05-11T20:43:53.135Z,37.63
2019-05-11T20:45:58.547Z,32.17
2019-05-11T20:48:02.554Z,33.48
2019-05-11T20:50:07.890Z,32.90
2019-05-11T20:52:14.471Z,34.38
2019-05-11T20:54:18.367Z,36.77
2019-05-11T20:56:23.807Z,32.45
2019-05-11T20:58:31.538Z,32.05
2019-05-11T21:00:38.202Z,31.97
2019-05-11T21:02:41.769Z,33.25
2019-05-11T21:04:45.697Z,33.48
2019-05-11T21:06:49.568Z,37.85
2019-05-11T21:08:53.589Z,37.55
2019-05-11T21:10:59.019Z,43.05
2019-05-11T21:13:03.598Z,37.78
2019-05-11T21:15:09.562Z,43.83
2019-05-11T21:17:13.932Z,44.25
2019-05-11T21:19:18.758Z,41.23
2019-05-11T21:21:22.957Z,40.15
2019-05-11T21:23:29.060Z,38.70
2019-05-11T21:25:32.449Z,35.85
2019-05-11T21:27:38.421Z,32.33
2019-05-11T21:29:41.944Z,36.88
2019-05-11T21:31:48.382Z,32.08
2019-05-11T21:33:51.373Z,35.03
2019-05-11T21:35:55.222Z,31.37
2019-05-11T21:37:59.384Z,32.90
2019-05-11T21:40:03.305Z,37.63
2019-05-11T21:42:07.752Z,32.85
2019-05-11T21:44:11.793Z,32.23
2019-05-11T21:46:18.068Z,34.35
2019-05-11T21:48:22.193Z,30.12
2019-05-11T21:50:27.927Z,29.65
2019-05-11T21:52:31.595Z,33.75
2019-05-11T21:54:35.463Z,32.60
2019-05-11T21:56:42.704Z,30.95
2019-05-11T21:58:46.580Z,33.70
2019-05-11T22:00:50.776Z,33.23
2019-05-11T22:02:54.698Z,32.42
2019-05-11T22:04:58.687Z,33.20
2019-05-11T22:07:02.593Z,35.33
2019-05-11T22:09:08.285Z,36.48
2019-05-11T22:11:14.170Z,35.28
2019-05-11T22:13:20.579Z,38.13
2019-05-11T22:15:25.003Z,36.40
2019-05-11T22:17:30.843Z,38.35
2019-05-11T22:19:34.497Z,35.25
2019-05-11T22:21:38.330Z,35.35
2019-05-11T22:23:42.187Z,33.35
2019-05-11T22:25:47.538Z,33.55
2019-05-11T22:27:51.752Z,31.90
2019-05-11T22:29:55.692Z,32.08
2019-05-11T22:31:59.602Z,32.28
2019-05-11T22:34:05.035Z,33.50
2019-05-11T22:36:08.991Z,29.37
2019-05-11T22:38:12.860Z,31.80
2019-05-11T22:40:17.235Z,32.28
2019-05-11T22:42:21.243Z,33.88
2019-05-11T22:44:27.748Z,33.88
2019-05-11T22:46:30.676Z,30.02
2019-05-11T22:48:34.547Z,32.33
2019-05-11T22:50:38.698Z,32.73
2019-05-11T22:52:42.570Z,35.83
2019-05-11T22:54:48.474Z,34.33
2019-05-11T22:56:53.948Z,35.23
2019-05-11T22:58:58.752Z,33.25
2019-05-11T23:01:02.805Z,35.83
2019-05-11T23:03:07.703Z,33.88
2019-05-11T23:05:12.255Z,31.23
2019-05-11T23:07:18.401Z,34.73
2019-05-11T23:09:21.698Z,30.17
2019-05-11T23:11:25.676Z,32.48
2019-05-11T23:13:29.513Z,33.35
2019-05-11T23:15:33.375Z,32.10
2019-05-11T23:17:38.678Z,31.73
2019-05-11T23:19:42.885Z,35.73
2019-05-11T23:21:48.138Z,32.15
2019-05-11T23:23:52.147Z,33.50
2019-05-11T23:25:57.903Z,36.77
2019-05-11T23:28:01.574Z,32.73
2019-05-11T23:30:08.751Z,35.20
2019-05-11T23:32:12.436Z,36.90
2019-05-11T23:34:17.693Z,44.58
2019-05-11T23:36:21.824Z,42.40
2019-05-11T23:38:28.057Z,38.45
2019-05-11T23:40:31.170Z,40.80
2019-05-11T23:42:37.659Z,40.00
2019-05-11T23:44:41.247Z,44.45
2019-05-11T23:46:47.862Z,43.02
2019-05-11T23:48:51.895Z,43.15
2019-05-11T23:50:57.909Z,43.28
2019-05-11T23:53:06.654Z,40.65
2019-05-11T23:55:08.883Z,40.28
2019-05-11T23:57:12.793Z,43.92
2019-05-11T23:59:18.650Z,41.18
